Portada
METAR-TAF:

METAR-TAF

Aeroports :

Changchun, Xina

latitud: 43-54N, longitud: 125-13E, altitud: 238 m

Observació

L'informe es va fer fa 1 hora i 6 minuts, a les 14:00 UTC
Vent 6 kt del Sud, variant entre Sud/Sud-Est i Sud-Oest
Temperatura 24°C
Humitat 83%
Pressió 1000 hPa
Visibilitat 10 km o més
sense núvols per sota de 1500 mi sense presència de cumulonimbus.

METAR: ZYCC 201400Z 19003MPS 150V230 CAVOK 24/21 Q1000 NOSIG

Hora: 23:06 (15:06 UTC)

Pronòstic

L'informe es va fer fa 6 hores i 4 minuts, a les 09:02 UTC
Pronòstic vàlid del 20 a les 12 UTC al 21 a les 12 UTC
Vent 10 kt del Sud/Sud-Oest
Visibilitat: 6000 m
Cel ennuvolat a una alçada de 3000 ft
Temporalment
l' 20 a les 12 UTC al 20 a les 16 UTC
Visibilitat: 2500 m
Escasses núvols a una alçada de 2000 ft, Cumulonimbus.
Cel ennuvolat a una alçada de 3000 ft
tempesta, pluja,

TAF: ZYCC 200902Z 2012/2112 21005MPS 6000 BKN030 TX30/2106Z TN20/2021Z TEMPO 2012/2016 2500 TSRA FEW020CB BKN030

Observacions i pronòstics meteorològics de més de 4000 aeroports (METAR i TAF).

Les estacions disponibles són els punts grocs i vermells al mapa.

Posi el ratolí al punt desitjat per veure el nom de l'estació.

Feu clic per veure les observacions i els pronòstics meteorològics.

Per canviar el mapa: feu clic els botons verds amb una creu de color negre per apropar; al botó verd amb un guió per allunyar la imatge; o en les fletxes verdes per a mapes adjacents.


METAR-TAF: